createdAt,value
2022-09-30T00:01:27.164Z,11.33
2022-09-30T00:04:20.559Z,12.85
2022-09-30T00:07:07.499Z,15.00
2022-09-30T00:09:54.882Z,10.45
2022-09-30T00:12:41.965Z,9.00
2022-09-30T00:15:28.987Z,14.25
2022-09-30T00:18:16.181Z,11.08
2022-09-30T00:21:03.283Z,10.20
2022-09-30T00:23:50.530Z,8.83
2022-09-30T00:26:37.915Z,13.58
2022-09-30T00:29:25.009Z,10.65
2022-09-30T00:32:12.142Z,14.35
2022-09-30T00:34:59.261Z,11.00
2022-09-30T00:37:47.391Z,9.38
2022-09-30T00:40:34.798Z,8.20
2022-09-30T00:43:42.830Z,9.85
2022-09-30T00:46:36.785Z,9.28
2022-09-30T00:49:26.537Z,9.68
2022-09-30T00:52:14.472Z,9.38
2022-09-30T00:55:04.858Z,9.40
2022-09-30T00:57:51.944Z,7.97
2022-09-30T01:00:39.318Z,5.72
2022-09-30T01:03:26.977Z,13.88
2022-09-30T01:06:14.298Z,7.72
2022-09-30T01:09:02.378Z,10.20
2022-09-30T01:11:49.907Z,8.15
2022-09-30T01:14:38.358Z,7.05
2022-09-30T01:17:58.561Z,12.80
2022-09-30T01:20:54.366Z,7.85
2022-09-30T01:24:09.695Z,10.58
2022-09-30T01:27:11.880Z,9.38
2022-09-30T01:30:10.760Z,10.43
2022-09-30T01:33:06.865Z,11.05
2022-09-30T01:36:17.870Z,9.35
2022-09-30T01:39:26.248Z,13.85
2022-09-30T01:42:28.031Z,12.47
2022-09-30T01:45:18.050Z,9.25
2022-09-30T01:48:08.245Z,9.85
2022-09-30T01:51:01.275Z,12.28
2022-09-30T01:53:51.460Z,8.30
2022-09-30T01:56:44.683Z,9.75
2022-09-30T01:59:44.021Z,9.50
2022-09-30T02:02:34.180Z,10.35
2022-09-30T02:05:42.696Z,8.58
2022-09-30T02:08:41.775Z,10.28
2022-09-30T02:11:31.492Z,10.93
2022-09-30T02:14:30.565Z,11.85
2022-09-30T02:17:24.053Z,6.72
2022-09-30T02:20:29.314Z,9.65
2022-09-30T02:23:24.313Z,7.95
2022-09-30T02:26:23.284Z,11.12
2022-09-30T02:29:13.673Z,10.82
2022-09-30T02:32:05.003Z,9.78
2022-09-30T02:34:55.132Z,5.62
2022-09-30T02:37:45.406Z,11.25
2022-09-30T02:40:44.369Z,5.92
2022-09-30T02:43:31.977Z,8.70
2022-09-30T02:46:28.295Z,11.75
2022-09-30T02:49:18.496Z,13.50
2022-09-30T02:52:16.012Z,13.32
2022-09-30T02:55:33.119Z,8.33
2022-09-30T02:58:24.421Z,7.92
2022-09-30T03:01:14.179Z,9.50
2022-09-30T03:04:07.525Z,11.43
2022-09-30T03:06:56.019Z,10.98
2022-09-30T03:09:43.302Z,9.25
2022-09-30T03:12:36.453Z,7.95
2022-09-30T03:15:36.694Z,11.28
2022-09-30T03:18:43.611Z,10.28
2022-09-30T03:21:46.124Z,10.08
2022-09-30T03:25:05.712Z,8.13
2022-09-30T03:28:00.139Z,10.23
2022-09-30T03:30:50.152Z,8.25
2022-09-30T03:33:46.041Z,7.28
2022-09-30T03:36:50.891Z,10.05
2022-09-30T03:39:52.753Z,11.00
2022-09-30T03:42:42.990Z,8.23
2022-09-30T03:45:36.048Z,10.58
2022-09-30T03:48:25.219Z,8.83
2022-09-30T03:51:13.684Z,11.12
2022-09-30T03:54:00.879Z,11.22
2022-09-30T03:56:47.913Z,11.40
2022-09-30T03:59:35.001Z,10.32
2022-09-30T04:02:22.546Z,14.35
2022-09-30T04:05:10.292Z,10.00
2022-09-30T04:07:57.374Z,12.65
2022-09-30T04:10:45.240Z,9.55
2022-09-30T04:13:32.812Z,11.90
2022-09-30T04:16:19.944Z,11.78
2022-09-30T04:19:07.307Z,9.38
2022-09-30T04:21:55.677Z,10.82
2022-09-30T04:24:43.788Z,9.40
2022-09-30T04:27:31.126Z,10.23
2022-09-30T04:30:23.883Z,11.28
2022-09-30T04:33:07.526Z,12.23
2022-09-30T04:35:56.159Z,9.83
2022-09-30T04:38:43.504Z,14.47
2022-09-30T04:41:32.129Z,14.45
2022-09-30T04:44:19.453Z,10.60
2022-09-30T04:47:06.731Z,9.53
2022-09-30T04:49:54.070Z,13.10
2022-09-30T04:52:43.699Z,9.45
2022-09-30T04:55:31.596Z,11.70
2022-09-30T04:58:18.577Z,14.20
2022-09-30T05:01:14.725Z,14.50
2022-09-30T05:04:02.206Z,11.90
2022-09-30T05:06:49.731Z,17.52
2022-09-30T05:09:37.262Z,14.20
2022-09-30T05:12:25.958Z,15.48
2022-09-30T05:15:13.062Z,15.00
2022-09-30T05:18:00.344Z,20.43
2022-09-30T05:20:52.506Z,20.27
2022-09-30T05:23:39.721Z,14.43
2022-09-30T05:26:26.737Z,14.70
2022-09-30T05:29:14.482Z,12.58
2022-09-30T05:32:01.947Z,10.80
2022-09-30T05:34:49.421Z,15.03
2022-09-30T05:37:36.414Z,11.28
2022-09-30T05:40:23.435Z,15.30
2022-09-30T05:43:10.956Z,16.07
2022-09-30T05:45:58.525Z,17.50
2022-09-30T05:48:45.798Z,15.93
2022-09-30T05:51:33.067Z,20.95
2022-09-30T05:54:20.632Z,22.77
2022-09-30T05:57:08.209Z,20.12
2022-09-30T05:59:58.099Z,20.30
2022-09-30T06:02:45.655Z,17.50
2022-09-30T06:05:32.894Z,14.63
2022-09-30T06:08:20.090Z,22.90
2022-09-30T06:11:13.165Z,17.70
2022-09-30T06:14:00.122Z,18.82
2022-09-30T06:16:48.312Z,20.85
2022-09-30T06:19:35.765Z,15.18
2022-09-30T06:22:23.046Z,24.45
2022-09-30T06:25:10.300Z,21.48
2022-09-30T06:27:58.360Z,20.50
2022-09-30T06:30:45.767Z,16.55
2022-09-30T06:33:33.705Z,15.85
2022-09-30T06:36:20.692Z,17.32
2022-09-30T06:39:12.825Z,18.75
2022-09-30T06:41:56.864Z,21.35
2022-09-30T06:44:52.605Z,21.52
2022-09-30T06:47:33.725Z,24.05
2022-09-30T06:50:25.670Z,21.52
2022-09-30T06:53:12.931Z,19.05
2022-09-30T06:56:00.313Z,21.57
2022-09-30T06:58:47.834Z,19.50
2022-09-30T07:01:34.895Z,20.32
2022-09-30T07:04:22.113Z,28.15
2022-09-30T07:07:09.436Z,19.62
2022-09-30T07:09:59.655Z,20.57
2022-09-30T07:12:45.450Z,17.35
2022-09-30T07:15:32.758Z,22.58
2022-09-30T07:18:20.478Z,22.85
2022-09-30T07:21:07.702Z,24.10
2022-09-30T07:23:57.452Z,20.57
2022-09-30T07:26:47.679Z,23.50
2022-09-30T07:29:50.370Z,21.73
2022-09-30T07:32:23.441Z,18.87
2022-09-30T07:35:10.484Z,20.48
2022-09-30T07:37:57.450Z,21.95
2022-09-30T07:41:02.261Z,21.10
2022-09-30T07:43:50.838Z,18.23
2022-09-30T07:46:40.184Z,18.98
2022-09-30T07:49:27.336Z,19.02
2022-09-30T07:52:15.368Z,13.55
2022-09-30T07:55:02.396Z,16.07
2022-09-30T07:57:49.972Z,17.02
2022-09-30T08:00:42.573Z,16.12
2022-09-30T08:03:26.281Z,17.37
2022-09-30T08:06:16.363Z,15.53
2022-09-30T08:09:03.691Z,16.25
2022-09-30T08:11:51.649Z,13.75
2022-09-30T08:14:38.661Z,17.62
2022-09-30T08:17:25.769Z,13.15
2022-09-30T08:20:15.684Z,15.10
2022-09-30T08:23:02.037Z,17.95
2022-09-30T08:25:49.768Z,12.47
2022-09-30T08:28:38.287Z,14.58
2022-09-30T08:31:26.674Z,12.93
2022-09-30T08:34:13.771Z,14.10
2022-09-30T08:37:03.790Z,16.80
2022-09-30T08:39:49.652Z,14.07
2022-09-30T08:42:51.799Z,13.00
2022-09-30T08:45:43.277Z,14.05
2022-09-30T08:48:54.282Z,16.23
2022-09-30T08:51:44.695Z,13.85
2022-09-30T08:54:39.340Z,14.33
2022-09-30T08:57:24.996Z,17.20
2022-09-30T09:00:17.373Z,14.80
2022-09-30T09:03:04.921Z,12.63
2022-09-30T09:06:07.543Z,14.00
2022-09-30T09:09:09.249Z,14.38
2022-09-30T09:12:05.096Z,20.32
2022-09-30T09:15:09.189Z,17.62
2022-09-30T09:18:22.620Z,15.00
2022-09-30T09:20:59.903Z,18.27
2022-09-30T09:23:48.404Z,16.97
2022-09-30T09:26:37.783Z,15.80
2022-09-30T09:29:47.701Z,18.17
2022-09-30T09:32:38.967Z,16.62
2022-09-30T09:35:34.454Z,16.17
2022-09-30T09:38:32.237Z,16.93
2022-09-30T09:41:37.110Z,12.20
2022-09-30T09:44:43.953Z,13.15
2022-09-30T09:47:31.469Z,13.70
2022-09-30T09:50:32.556Z,13.03
2022-09-30T09:53:22.566Z,12.68
2022-09-30T09:56:21.260Z,14.40
2022-09-30T09:59:19.404Z,12.18
2022-09-30T10:02:08.811Z,13.60
2022-09-30T10:04:57.656Z,13.30
2022-09-30T10:07:45.276Z,16.73
2022-09-30T10:10:33.883Z,17.00
2022-09-30T10:13:39.491Z,14.73
2022-09-30T10:16:38.120Z,16.50
2022-09-30T10:19:27.988Z,12.43
2022-09-30T10:22:18.316Z,13.00
2022-09-30T10:25:23.619Z,14.73
2022-09-30T10:28:25.262Z,12.20
2022-09-30T10:31:17.207Z,11.75
2022-09-30T10:34:13.551Z,11.53
2022-09-30T10:37:03.241Z,8.73
2022-09-30T10:40:05.301Z,11.70
2022-09-30T10:42:52.546Z,9.33
2022-09-30T10:45:41.378Z,9.98
2022-09-30T10:48:31.710Z,8.40
2022-09-30T10:51:31.372Z,9.80
2022-09-30T10:54:42.542Z,8.00
2022-09-30T10:57:34.824Z,5.40
2022-09-30T11:00:25.037Z,8.08
2022-09-30T11:03:21.272Z,8.95
2022-09-30T11:06:11.737Z,7.90
2022-09-30T11:09:13.792Z,5.95
2022-09-30T11:12:04.142Z,8.90
2022-09-30T11:14:54.199Z,9.13
2022-09-30T11:17:47.166Z,10.55
2022-09-30T11:20:37.252Z,8.33
2022-09-30T11:23:36.148Z,7.00
2022-09-30T11:26:44.299Z,11.05
2022-09-30T11:29:43.047Z,5.90
2022-09-30T11:32:52.754Z,8.00
2022-09-30T11:35:48.916Z,10.48
2022-09-30T11:38:45.093Z,6.33
2022-09-30T11:41:41.709Z,6.78
2022-09-30T11:44:37.850Z,4.78
2022-09-30T11:47:28.159Z,9.18
2022-09-30T11:50:33.101Z,3.83
2022-09-30T11:53:32.153Z,6.42
2022-09-30T11:56:28.251Z,3.35
2022-09-30T11:59:27.499Z,14.43
2022-09-30T12:02:29.634Z,7.50
2022-09-30T12:05:28.752Z,3.75
2022-09-30T12:08:24.769Z,5.40
2022-09-30T12:11:15.008Z,6.85
2022-09-30T12:14:08.141Z,3.08
2022-09-30T12:16:56.785Z,3.90
2022-09-30T12:19:47.060Z,4.28
2022-09-30T12:22:40.303Z,5.03
2022-09-30T12:25:33.231Z,6.95
2022-09-30T12:28:44.295Z,6.00
2022-09-30T12:31:55.723Z,3.62
2022-09-30T12:35:02.424Z,7.05
2022-09-30T12:38:15.169Z,6.62
2022-09-30T12:41:21.162Z,6.53
2022-09-30T12:44:29.273Z,4.92
2022-09-30T12:47:34.561Z,5.42
2022-09-30T12:50:24.683Z,3.37
2022-09-30T12:53:14.772Z,3.42
2022-09-30T12:56:13.943Z,3.87
2022-09-30T12:59:02.019Z,5.37
2022-09-30T13:01:50.001Z,4.50
2022-09-30T13:04:39.831Z,4.05
2022-09-30T13:07:27.297Z,3.80
2022-09-30T13:10:30.431Z,4.15
2022-09-30T13:13:33.398Z,6.22
2022-09-30T13:16:27.749Z,3.37
2022-09-30T13:19:14.992Z,3.72
2022-09-30T13:22:32.344Z,4.45
2022-09-30T13:25:20.169Z,4.05
2022-09-30T13:28:25.324Z,4.95
2022-09-30T13:31:16.116Z,2.70
2022-09-30T13:34:06.610Z,2.90
2022-09-30T13:36:59.222Z,4.55
2022-09-30T13:39:52.478Z,2.72
2022-09-30T13:42:42.744Z,2.90
2022-09-30T13:45:34.969Z,3.10
2022-09-30T13:48:36.937Z,5.12
2022-09-30T13:51:26.508Z,4.47
2022-09-30T13:54:16.703Z,3.95
2022-09-30T13:57:06.395Z,5.22
2022-09-30T13:59:56.623Z,2.70
2022-09-30T14:03:09.353Z,4.50
2022-09-30T14:06:26.812Z,4.03
2022-09-30T14:09:35.981Z,5.70
2022-09-30T14:12:37.954Z,4.00
2022-09-30T14:15:56.787Z,2.42
2022-09-30T14:19:09.177Z,2.80
2022-09-30T14:22:02.232Z,3.85
2022-09-30T14:24:51.095Z,2.95
2022-09-30T14:27:47.571Z,3.00
2022-09-30T14:30:41.043Z,2.50
2022-09-30T14:33:29.815Z,3.85
2022-09-30T14:36:22.805Z,3.17
2022-09-30T14:39:12.989Z,3.75
2022-09-30T14:42:05.165Z,4.90
2022-09-30T14:44:54.902Z,2.08
2022-09-30T14:47:47.783Z,2.50
2022-09-30T14:50:40.765Z,3.42
2022-09-30T14:53:30.441Z,2.62
2022-09-30T14:56:32.199Z,5.53
2022-09-30T14:59:22.561Z,2.85
2022-09-30T15:02:23.080Z,4.67
2022-09-30T15:05:13.428Z,2.00
2022-09-30T15:08:00.521Z,2.15
2022-09-30T15:10:50.131Z,1.45
2022-09-30T15:13:40.490Z,3.90
2022-09-30T15:16:30.462Z,3.80
2022-09-30T15:19:30.005Z,3.35
2022-09-30T15:22:18.355Z,2.15
2022-09-30T15:25:06.609Z,4.05
2022-09-30T15:27:54.467Z,3.92
2022-09-30T15:30:43.073Z,3.90
2022-09-30T15:33:32.269Z,1.82
2022-09-30T15:36:20.564Z,2.77
2022-09-30T15:39:10.027Z,4.03
2022-09-30T15:41:57.374Z,2.45
2022-09-30T15:44:44.751Z,5.35
2022-09-30T15:47:31.930Z,1.00
2022-09-30T15:50:43.632Z,4.12
2022-09-30T15:53:33.664Z,3.12
2022-09-30T15:56:30.779Z,2.58
2022-09-30T15:59:20.134Z,2.25
2022-09-30T16:02:10.240Z,5.03
2022-09-30T16:05:01.939Z,3.65
2022-09-30T16:07:48.908Z,7.10
2022-09-30T16:10:37.571Z,2.25
2022-09-30T16:13:28.021Z,1.87
2022-09-30T16:16:21.313Z,2.25
2022-09-30T16:19:11.484Z,6.22
2022-09-30T16:21:59.991Z,3.80
2022-09-30T16:24:48.278Z,3.85
2022-09-30T16:27:36.044Z,3.47
2022-09-30T16:30:23.369Z,3.70
2022-09-30T16:33:12.467Z,3.70
2022-09-30T16:35:59.650Z,2.67
2022-09-30T16:38:46.900Z,4.75
2022-09-30T16:41:34.200Z,4.70
2022-09-30T16:44:23.271Z,4.10
2022-09-30T16:47:15.780Z,3.22
2022-09-30T16:50:02.859Z,3.75
2022-09-30T16:52:49.920Z,5.12
2022-09-30T16:55:36.939Z,6.15
2022-09-30T16:58:24.458Z,3.47
2022-09-30T17:01:24.386Z,2.00
2022-09-30T17:04:14.175Z,4.45
2022-09-30T17:07:01.850Z,2.85
2022-09-30T17:09:49.297Z,5.62
2022-09-30T17:12:36.459Z,6.62
2022-09-30T17:15:24.168Z,5.00
2022-09-30T17:18:12.699Z,5.28
2022-09-30T17:21:01.206Z,4.85
2022-09-30T17:23:48.708Z,3.77
2022-09-30T17:26:36.871Z,3.27
2022-09-30T17:29:32.722Z,4.30
2022-09-30T17:32:12.820Z,7.60
2022-09-30T17:34:59.851Z,4.65
2022-09-30T17:37:47.880Z,2.90
2022-09-30T17:40:52.872Z,5.25
2022-09-30T17:43:40.113Z,3.70
2022-09-30T17:46:27.528Z,2.60
2022-09-30T17:49:20.595Z,4.65
2022-09-30T17:52:05.869Z,8.10
2022-09-30T17:54:53.909Z,4.92
2022-09-30T17:57:41.104Z,4.03
2022-09-30T18:00:28.908Z,6.87
2022-09-30T18:03:16.055Z,4.75
2022-09-30T18:06:03.950Z,4.92
2022-09-30T18:08:54.137Z,4.35
2022-09-30T18:11:43.712Z,8.05
2022-09-30T18:14:31.979Z,6.28
2022-09-30T18:17:19.293Z,6.90
2022-09-30T18:20:07.007Z,5.35
2022-09-30T18:22:54.251Z,7.17
2022-09-30T18:25:43.755Z,6.70
2022-09-30T18:28:31.284Z,9.03
2022-09-30T18:31:19.862Z,7.33
2022-09-30T18:34:07.857Z,9.80
2022-09-30T18:36:54.993Z,7.33
2022-09-30T18:39:42.153Z,8.33
2022-09-30T18:42:30.179Z,6.90
2022-09-30T18:45:17.806Z,5.60
2022-09-30T18:48:07.326Z,4.37
2022-09-30T18:50:55.032Z,6.83
2022-09-30T18:53:42.085Z,7.65
2022-09-30T18:56:31.890Z,7.15
2022-09-30T18:59:22.040Z,6.70
2022-09-30T19:02:08.391Z,5.60
2022-09-30T19:04:59.804Z,7.78
2022-09-30T19:07:46.375Z,10.25
2022-09-30T19:10:34.145Z,5.97
2022-09-30T19:13:23.619Z,8.90
2022-09-30T19:16:11.759Z,7.25
2022-09-30T19:19:04.258Z,7.78
2022-09-30T19:21:51.341Z,7.45
2022-09-30T19:24:38.810Z,9.48
2022-09-30T19:27:26.258Z,5.85
2022-09-30T19:30:15.212Z,7.00
2022-09-30T19:33:02.258Z,9.83
2022-09-30T19:35:53.927Z,10.98
2022-09-30T19:38:40.204Z,7.80
2022-09-30T19:41:32.096Z,10.80
2022-09-30T19:44:19.994Z,8.23
2022-09-30T19:47:07.119Z,8.48
2022-09-30T19:49:54.766Z,7.92
2022-09-30T19:52:51.398Z,9.63
2022-09-30T19:55:33.838Z,11.12
2022-09-30T19:58:20.910Z,9.63
2022-09-30T20:01:08.893Z,10.25
2022-09-30T20:03:57.062Z,11.05
2022-09-30T20:06:44.092Z,10.93
2022-09-30T20:09:31.094Z,10.82
2022-09-30T20:12:18.061Z,8.30
2022-09-30T20:15:23.612Z,10.43
2022-09-30T20:18:10.935Z,9.33
2022-09-30T20:20:58.419Z,11.63
2022-09-30T20:23:46.003Z,9.30
2022-09-30T20:26:35.011Z,13.22
2022-09-30T20:29:22.507Z,10.50
2022-09-30T20:32:11.387Z,10.28
2022-09-30T20:34:58.591Z,10.93
2022-09-30T20:37:45.540Z,14.33
2022-09-30T20:40:34.325Z,9.05
2022-09-30T20:43:21.331Z,10.98
2022-09-30T20:46:08.928Z,12.82
2022-09-30T20:49:06.567Z,10.13
2022-09-30T20:51:55.114Z,13.58
2022-09-30T20:54:42.339Z,11.28
2022-09-30T20:57:30.945Z,13.75
2022-09-30T21:00:18.345Z,10.98
2022-09-30T21:03:06.142Z,13.20
2022-09-30T21:05:54.090Z,8.70
2022-09-30T21:08:43.024Z,8.53
2022-09-30T21:11:30.363Z,7.72
2022-09-30T21:14:18.328Z,12.55
2022-09-30T21:17:05.802Z,7.42
2022-09-30T21:19:53.090Z,9.70
2022-09-30T21:22:41.211Z,7.72
2022-09-30T21:25:28.528Z,11.28
2022-09-30T21:28:15.615Z,9.98
2022-09-30T21:31:08.213Z,13.55
2022-09-30T21:33:58.270Z,9.93
2022-09-30T21:36:46.291Z,8.70
2022-09-30T21:39:33.201Z,10.72
2022-09-30T21:42:21.266Z,8.58
2022-09-30T21:45:09.241Z,7.97
2022-09-30T21:48:05.710Z,8.73
2022-09-30T21:50:53.281Z,8.40
2022-09-30T21:53:40.781Z,9.98
2022-09-30T21:56:29.222Z,12.37
2022-09-30T21:59:16.638Z,8.58
2022-09-30T22:02:05.366Z,8.13
2022-09-30T22:04:52.492Z,9.93
2022-09-30T22:07:39.662Z,10.58
2022-09-30T22:10:26.783Z,10.23
2022-09-30T22:13:15.484Z,10.30
2022-09-30T22:16:07.087Z,9.80
2022-09-30T22:18:55.733Z,10.72
2022-09-30T22:21:42.973Z,12.25
2022-09-30T22:24:31.386Z,9.73
2022-09-30T22:27:18.469Z,13.28
2022-09-30T22:30:07.014Z,15.35
2022-09-30T22:32:55.720Z,10.35
2022-09-30T22:36:00.379Z,8.20
2022-09-30T22:38:48.902Z,8.88
2022-09-30T22:41:36.625Z,12.55
2022-09-30T22:44:25.422Z,12.53
2022-09-30T22:47:12.824Z,10.68
2022-09-30T22:50:00.683Z,11.90
2022-09-30T22:52:49.450Z,8.45
2022-09-30T22:55:38.179Z,11.20
2022-09-30T22:58:25.393Z,9.03
2022-09-30T23:01:12.709Z,8.93
2022-09-30T23:04:00.205Z,12.25
2022-09-30T23:06:52.303Z,11.65
2022-09-30T23:09:39.512Z,11.78
2022-09-30T23:12:26.892Z,13.83
2022-09-30T23:15:14.407Z,11.38
2022-09-30T23:18:01.717Z,12.60
2022-09-30T23:21:04.119Z,11.95
2022-09-30T23:23:51.182Z,9.95
2022-09-30T23:26:39.493Z,10.13
2022-09-30T23:29:26.833Z,10.23
2022-09-30T23:32:14.207Z,10.90
2022-09-30T23:35:01.718Z,8.80
2022-09-30T23:37:52.258Z,9.83
2022-09-30T23:40:50.357Z,10.40
2022-09-30T23:43:38.084Z,11.95
2022-09-30T23:46:25.189Z,9.65
2022-09-30T23:49:12.487Z,10.28
2022-09-30T23:51:59.525Z,11.65
2022-09-30T23:54:46.755Z,11.18
2022-09-30T23:57:34.069Z,9.85
